sensor_id;sensor_type;location;lat;lon;timestamp;pressure;altitude;pressure_sealevel;temperature
15680;BMP180;15488;48.114;11.532;2022-09-21T00:02:19;96056.00;;;16.40
15680;BMP180;15488;48.114;11.532;2022-09-21T00:04:46;96055.00;;;16.30
15680;BMP180;15488;48.114;11.532;2022-09-21T00:07:15;96056.00;;;16.30
15680;BMP180;15488;48.114;11.532;2022-09-21T00:09:43;96055.00;;;16.30
15680;BMP180;15488;48.114;11.532;2022-09-21T00:12:10;96060.00;;;16.20
15680;BMP180;15488;48.114;11.532;2022-09-21T00:14:38;96055.00;;;16.20
15680;BMP180;15488;48.114;11.532;2022-09-21T00:17:05;96060.00;;;16.20
15680;BMP180;15488;48.114;11.532;2022-09-21T00:19:35;96061.00;;;16.10
15680;BMP180;15488;48.114;11.532;2022-09-21T00:22:03;96058.00;;;16.10
15680;BMP180;15488;48.114;11.532;2022-09-21T00:24:36;96059.00;;;16.10
15680;BMP180;15488;48.114;11.532;2022-09-21T00:27:04;96055.00;;;16.10
15680;BMP180;15488;48.114;11.532;2022-09-21T00:29:31;96057.00;;;16.10
15680;BMP180;15488;48.114;11.532;2022-09-21T00:31:59;96060.00;;;16.00
15680;BMP180;15488;48.114;11.532;2022-09-21T00:34:26;96056.00;;;16.00
15680;BMP180;15488;48.114;11.532;2022-09-21T00:36:55;96064.00;;;16.00
15680;BMP180;15488;48.114;11.532;2022-09-21T00:39:23;96070.00;;;16.00
15680;BMP180;15488;48.114;11.532;2022-09-21T00:41:50;96058.00;;;15.90
15680;BMP180;15488;48.114;11.532;2022-09-21T00:44:29;96065.00;;;15.90
15680;BMP180;15488;48.114;11.532;2022-09-21T00:47:00;96062.00;;;15.90
15680;BMP180;15488;48.114;11.532;2022-09-21T00:49:29;96061.00;;;15.90
15680;BMP180;15488;48.114;11.532;2022-09-21T00:51:58;96061.00;;;15.90
15680;BMP180;15488;48.114;11.532;2022-09-21T00:54:34;96059.00;;;15.80
15680;BMP180;15488;48.114;11.532;2022-09-21T00:57:04;96068.00;;;15.80
15680;BMP180;15488;48.114;11.532;2022-09-21T00:59:35;96067.00;;;15.80
15680;BMP180;15488;48.114;11.532;2022-09-21T01:02:04;96062.00;;;15.80
15680;BMP180;15488;48.114;11.532;2022-09-21T01:04:32;96062.00;;;15.80
15680;BMP180;15488;48.114;11.532;2022-09-21T01:07:04;96061.00;;;15.80
15680;BMP180;15488;48.114;11.532;2022-09-21T01:09:33;96059.00;;;15.80
15680;BMP180;15488;48.114;11.532;2022-09-21T01:12:12;96053.00;;;15.70
15680;BMP180;15488;48.114;11.532;2022-09-21T01:15:00;96054.00;;;15.70
15680;BMP180;15488;48.114;11.532;2022-09-21T01:17:35;96058.00;;;15.70
15680;BMP180;15488;48.114;11.532;2022-09-21T01:23:20;96059.00;;;15.60
15680;BMP180;15488;48.114;11.532;2022-09-21T01:25:58;96059.00;;;15.60
15680;BMP180;15488;48.114;11.532;2022-09-21T01:28:47;96056.00;;;15.60
15680;BMP180;15488;48.114;11.532;2022-09-21T01:31:21;96054.00;;;15.60
15680;BMP180;15488;48.114;11.532;2022-09-21T01:33:53;96058.00;;;15.60
15680;BMP180;15488;48.114;11.532;2022-09-21T01:36:24;96060.00;;;15.50
15680;BMP180;15488;48.114;11.532;2022-09-21T01:38:57;96052.00;;;15.50
15680;BMP180;15488;48.114;11.532;2022-09-21T01:41:28;96053.00;;;15.50
15680;BMP180;15488;48.114;11.532;2022-09-21T01:44:02;96064.00;;;15.50
15680;BMP180;15488;48.114;11.532;2022-09-21T01:46:34;96053.00;;;15.50
15680;BMP180;15488;48.114;11.532;2022-09-21T01:49:07;96057.00;;;15.50
15680;BMP180;15488;48.114;11.532;2022-09-21T01:51:40;96058.00;;;15.40
15680;BMP180;15488;48.114;11.532;2022-09-21T01:54:11;96062.00;;;15.40
15680;BMP180;15488;48.114;11.532;2022-09-21T01:56:43;96056.00;;;15.40
15680;BMP180;15488;48.114;11.532;2022-09-21T01:59:24;96061.00;;;15.40
15680;BMP180;15488;48.114;11.532;2022-09-21T02:01:56;96054.00;;;15.40
15680;BMP180;15488;48.114;11.532;2022-09-21T02:04:25;96059.00;;;15.40
15680;BMP180;15488;48.114;11.532;2022-09-21T02:06:53;96057.00;;;15.30
15680;BMP180;15488;48.114;11.532;2022-09-21T02:09:23;96064.00;;;15.30
15680;BMP180;15488;48.114;11.532;2022-09-21T02:11:51;96059.00;;;15.30
15680;BMP180;15488;48.114;11.532;2022-09-21T02:14:22;96056.00;;;15.30
15680;BMP180;15488;48.114;11.532;2022-09-21T02:17:01;96053.00;;;15.30
15680;BMP180;15488;48.114;11.532;2022-09-21T02:19:39;96058.00;;;15.30
15680;BMP180;15488;48.114;11.532;2022-09-21T02:22:14;96053.00;;;15.20
15680;BMP180;15488;48.114;11.532;2022-09-21T02:24:46;96055.00;;;15.20
15680;BMP180;15488;48.114;11.532;2022-09-21T02:27:25;96050.00;;;15.20
15680;BMP180;15488;48.114;11.532;2022-09-21T02:30:04;96056.00;;;15.20
15680;BMP180;15488;48.114;11.532;2022-09-21T02:32:39;96063.00;;;15.20
15680;BMP180;15488;48.114;11.532;2022-09-21T02:35:24;96054.00;;;15.20
15680;BMP180;15488;48.114;11.532;2022-09-21T02:37:57;96062.00;;;15.20
15680;BMP180;15488;48.114;11.532;2022-09-21T02:40:31;96056.00;;;15.20
15680;BMP180;15488;48.114;11.532;2022-09-21T02:43:04;96058.00;;;15.20
15680;BMP180;15488;48.114;11.532;2022-09-21T02:45:37;96063.00;;;15.20
15680;BMP180;15488;48.114;11.532;2022-09-21T02:48:08;96057.00;;;15.10
15680;BMP180;15488;48.114;11.532;2022-09-21T02:50:42;96054.00;;;15.10
15680;BMP180;15488;48.114;11.532;2022-09-21T02:53:11;96057.00;;;15.10
15680;BMP180;15488;48.114;11.532;2022-09-21T02:55:42;96051.00;;;15.10
15680;BMP180;15488;48.114;11.532;2022-09-21T02:58:12;96057.00;;;15.10
15680;BMP180;15488;48.114;11.532;2022-09-21T03:00:42;96052.00;;;15.00
15680;BMP180;15488;48.114;11.532;2022-09-21T03:03:17;96059.00;;;15.00
15680;BMP180;15488;48.114;11.532;2022-09-21T03:05:47;96061.00;;;15.00
15680;BMP180;15488;48.114;11.532;2022-09-21T03:08:15;96050.00;;;15.00
15680;BMP180;15488;48.114;11.532;2022-09-21T03:10:42;96068.00;;;15.00
15680;BMP180;15488;48.114;11.532;2022-09-21T03:13:12;96058.00;;;15.00
15680;BMP180;15488;48.114;11.532;2022-09-21T03:15:42;96063.00;;;15.00
15680;BMP180;15488;48.114;11.532;2022-09-21T03:18:11;96060.00;;;15.00
15680;BMP180;15488;48.114;11.532;2022-09-21T03:20:40;96067.00;;;15.00
15680;BMP180;15488;48.114;11.532;2022-09-21T03:23:10;96067.00;;;15.00
15680;BMP180;15488;48.114;11.532;2022-09-21T03:25:37;96066.00;;;14.90
15680;BMP180;15488;48.114;11.532;2022-09-21T03:28:05;96068.00;;;14.90
15680;BMP180;15488;48.114;11.532;2022-09-21T03:30:33;96069.00;;;14.90
15680;BMP180;15488;48.114;11.532;2022-09-21T03:33:01;96074.00;;;14.90
15680;BMP180;15488;48.114;11.532;2022-09-21T03:35:30;96073.00;;;14.90
15680;BMP180;15488;48.114;11.532;2022-09-21T03:37:59;96068.00;;;14.90
15680;BMP180;15488;48.114;11.532;2022-09-21T03:40:27;96066.00;;;14.80
15680;BMP180;15488;48.114;11.532;2022-09-21T03:42:55;96064.00;;;14.80
15680;BMP180;15488;48.114;11.532;2022-09-21T03:45:22;96071.00;;;14.80
15680;BMP180;15488;48.114;11.532;2022-09-21T03:47:54;96063.00;;;14.80
15680;BMP180;15488;48.114;11.532;2022-09-21T03:50:25;96059.00;;;14.80
15680;BMP180;15488;48.114;11.532;2022-09-21T03:52:53;96059.00;;;14.80
15680;BMP180;15488;48.114;11.532;2022-09-21T03:55:20;96066.00;;;14.80
15680;BMP180;15488;48.114;11.532;2022-09-21T03:57:48;96062.00;;;14.70
15680;BMP180;15488;48.114;11.532;2022-09-21T04:00:15;96061.00;;;14.70
15680;BMP180;15488;48.114;11.532;2022-09-21T04:02:43;96064.00;;;14.70
15680;BMP180;15488;48.114;11.532;2022-09-21T04:05:12;96074.00;;;14.70
15680;BMP180;15488;48.114;11.532;2022-09-21T04:07:43;96068.00;;;14.70
15680;BMP180;15488;48.114;11.532;2022-09-21T04:10:13;96074.00;;;14.70
15680;BMP180;15488;48.114;11.532;2022-09-21T04:12:42;96066.00;;;14.60
15680;BMP180;15488;48.114;11.532;2022-09-21T04:15:11;96073.00;;;14.60
15680;BMP180;15488;48.114;11.532;2022-09-21T04:17:39;96073.00;;;14.60
15680;BMP180;15488;48.114;11.532;2022-09-21T04:20:07;96076.00;;;14.60
15680;BMP180;15488;48.114;11.532;2022-09-21T04:22:34;96078.00;;;14.60
15680;BMP180;15488;48.114;11.532;2022-09-21T04:25:04;96081.00;;;14.60
15680;BMP180;15488;48.114;11.532;2022-09-21T04:27:32;96080.00;;;14.60
15680;BMP180;15488;48.114;11.532;2022-09-21T04:30:00;96074.00;;;14.50
15680;BMP180;15488;48.114;11.532;2022-09-21T04:32:28;96070.00;;;14.50
15680;BMP180;15488;48.114;11.532;2022-09-21T04:34:55;96075.00;;;14.50
15680;BMP180;15488;48.114;11.532;2022-09-21T04:37:23;96077.00;;;14.50
15680;BMP180;15488;48.114;11.532;2022-09-21T04:39:50;96081.00;;;14.50
15680;BMP180;15488;48.114;11.532;2022-09-21T04:42:19;96078.00;;;14.50
15680;BMP180;15488;48.114;11.532;2022-09-21T04:44:46;96082.00;;;14.50
15680;BMP180;15488;48.114;11.532;2022-09-21T04:47:14;96087.00;;;14.50
15680;BMP180;15488;48.114;11.532;2022-09-21T04:49:41;96091.00;;;14.40
15680;BMP180;15488;48.114;11.532;2022-09-21T04:52:08;96089.00;;;14.40
15680;BMP180;15488;48.114;11.532;2022-09-21T04:54:36;96087.00;;;14.40
15680;BMP180;15488;48.114;11.532;2022-09-21T04:57:04;96099.00;;;14.40
15680;BMP180;15488;48.114;11.532;2022-09-21T04:59:33;96100.00;;;14.40
15680;BMP180;15488;48.114;11.532;2022-09-21T05:02:00;96104.00;;;14.40
15680;BMP180;15488;48.114;11.532;2022-09-21T05:04:28;96107.00;;;14.40
15680;BMP180;15488;48.114;11.532;2022-09-21T05:06:55;96104.00;;;14.40
15680;BMP180;15488;48.114;11.532;2022-09-21T05:09:24;96109.00;;;14.30
15680;BMP180;15488;48.114;11.532;2022-09-21T05:12:09;96113.00;;;14.30
15680;BMP180;15488;48.114;11.532;2022-09-21T05:14:38;96107.00;;;14.30
15680;BMP180;15488;48.114;11.532;2022-09-21T05:17:06;96120.00;;;14.30
15680;BMP180;15488;48.114;11.532;2022-09-21T05:19:33;96117.00;;;14.30
15680;BMP180;15488;48.114;11.532;2022-09-21T05:22:01;96115.00;;;14.30
15680;BMP180;15488;48.114;11.532;2022-09-21T05:24:28;96122.00;;;14.30
15680;BMP180;15488;48.114;11.532;2022-09-21T05:26:56;96118.00;;;14.30
15680;BMP180;15488;48.114;11.532;2022-09-21T05:29:24;96121.00;;;14.30
15680;BMP180;15488;48.114;11.532;2022-09-21T05:31:56;96117.00;;;14.30
15680;BMP180;15488;48.114;11.532;2022-09-21T05:34:44;96118.00;;;14.30
15680;BMP180;15488;48.114;11.532;2022-09-21T05:37:28;96113.00;;;14.30
15680;BMP180;15488;48.114;11.532;2022-09-21T05:40:00;96118.00;;;14.30
15680;BMP180;15488;48.114;11.532;2022-09-21T05:42:28;96115.00;;;14.30
15680;BMP180;15488;48.114;11.532;2022-09-21T05:44:56;96125.00;;;14.30
15680;BMP180;15488;48.114;11.532;2022-09-21T05:47:33;96114.00;;;14.30
15680;BMP180;15488;48.114;11.532;2022-09-21T05:50:13;96114.00;;;14.30
15680;BMP180;15488;48.114;11.532;2022-09-21T05:52:46;96131.00;;;14.40
15680;BMP180;15488;48.114;11.532;2022-09-21T05:55:29;96113.00;;;14.40
15680;BMP180;15488;48.114;11.532;2022-09-21T05:58:04;96112.00;;;14.50
15680;BMP180;15488;48.114;11.532;2022-09-21T06:00:40;96122.00;;;14.60
15680;BMP180;15488;48.114;11.532;2022-09-21T06:03:26;96121.00;;;14.70
15680;BMP180;15488;48.114;11.532;2022-09-21T06:05:54;96120.00;;;14.90
15680;BMP180;15488;48.114;11.532;2022-09-21T06:08:22;96118.00;;;14.80
15680;BMP180;15488;48.114;11.532;2022-09-21T06:10:49;96121.00;;;14.90
15680;BMP180;15488;48.114;11.532;2022-09-21T06:13:17;96123.00;;;14.90
15680;BMP180;15488;48.114;11.532;2022-09-21T06:15:44;96131.00;;;14.90
15680;BMP180;15488;48.114;11.532;2022-09-21T06:18:12;96119.00;;;15.00
15680;BMP180;15488;48.114;11.532;2022-09-21T06:20:41;96128.00;;;15.00
15680;BMP180;15488;48.114;11.532;2022-09-21T06:23:10;96127.00;;;15.10
15680;BMP180;15488;48.114;11.532;2022-09-21T06:25:38;96132.00;;;15.10
15680;BMP180;15488;48.114;11.532;2022-09-21T06:28:07;96137.00;;;15.10
15680;BMP180;15488;48.114;11.532;2022-09-21T06:30:35;96140.00;;;15.20
15680;BMP180;15488;48.114;11.532;2022-09-21T06:33:05;96131.00;;;15.30
15680;BMP180;15488;48.114;11.532;2022-09-21T06:35:34;96137.00;;;15.20
15680;BMP180;15488;48.114;11.532;2022-09-21T06:38:04;96153.00;;;15.30
15680;BMP180;15488;48.114;11.532;2022-09-21T06:40:33;96142.00;;;15.30
15680;BMP180;15488;48.114;11.532;2022-09-21T06:43:02;96142.00;;;14.80
15680;BMP180;15488;48.114;11.532;2022-09-21T06:45:30;96144.00;;;15.40
15680;BMP180;15488;48.114;11.532;2022-09-21T06:47:58;96145.00;;;15.50
15680;BMP180;15488;48.114;11.532;2022-09-21T06:50:25;96146.00;;;15.50
15680;BMP180;15488;48.114;11.532;2022-09-21T06:52:53;96139.00;;;15.50
15680;BMP180;15488;48.114;11.532;2022-09-21T06:55:21;96147.00;;;15.70
15680;BMP180;15488;48.114;11.532;2022-09-21T06:57:49;96142.00;;;15.70
15680;BMP180;15488;48.114;11.532;2022-09-21T07:00:17;96142.00;;;15.70
15680;BMP180;15488;48.114;11.532;2022-09-21T07:02:44;96147.00;;;15.70
15680;BMP180;15488;48.114;11.532;2022-09-21T07:05:12;96142.00;;;15.80
15680;BMP180;15488;48.114;11.532;2022-09-21T07:07:39;96147.00;;;15.90
15680;BMP180;15488;48.114;11.532;2022-09-21T07:10:07;96148.00;;;15.90
15680;BMP180;15488;48.114;11.532;2022-09-21T07:12:36;96147.00;;;15.90
15680;BMP180;15488;48.114;11.532;2022-09-21T07:15:05;96147.00;;;16.00
15680;BMP180;15488;48.114;11.532;2022-09-21T07:17:35;96142.00;;;16.10
15680;BMP180;15488;48.114;11.532;2022-09-21T07:20:03;96152.00;;;16.20
15680;BMP180;15488;48.114;11.532;2022-09-21T07:22:32;96150.00;;;16.20
15680;BMP180;15488;48.114;11.532;2022-09-21T07:25:00;96157.00;;;16.20
15680;BMP180;15488;48.114;11.532;2022-09-21T07:27:28;96147.00;;;16.30
15680;BMP180;15488;48.114;11.532;2022-09-21T07:29:58;96152.00;;;16.30
15680;BMP180;15488;48.114;11.532;2022-09-21T07:32:25;96154.00;;;16.30
15680;BMP180;15488;48.114;11.532;2022-09-21T07:34:52;96151.00;;;16.40
15680;BMP180;15488;48.114;11.532;2022-09-21T07:37:21;96149.00;;;16.50
15680;BMP180;15488;48.114;11.532;2022-09-21T07:39:49;96152.00;;;16.50
15680;BMP180;15488;48.114;11.532;2022-09-21T07:42:18;96152.00;;;16.60
15680;BMP180;15488;48.114;11.532;2022-09-21T07:44:47;96159.00;;;16.70
15680;BMP180;15488;48.114;11.532;2022-09-21T07:47:16;96154.00;;;16.70
15680;BMP180;15488;48.114;11.532;2022-09-21T07:49:44;96156.00;;;16.80
15680;BMP180;15488;48.114;11.532;2022-09-21T07:52:12;96156.00;;;16.90
15680;BMP180;15488;48.114;11.532;2022-09-21T07:54:40;96154.00;;;17.00
15680;BMP180;15488;48.114;11.532;2022-09-21T07:57:08;96160.00;;;17.00
15680;BMP180;15488;48.114;11.532;2022-09-21T07:59:53;96161.00;;;17.10
15680;BMP180;15488;48.114;11.532;2022-09-21T08:02:25;96161.00;;;17.10
15680;BMP180;15488;48.114;11.532;2022-09-21T08:04:52;96158.00;;;17.20
15680;BMP180;15488;48.114;11.532;2022-09-21T08:07:20;96156.00;;;17.30
15680;BMP180;15488;48.114;11.532;2022-09-21T08:09:48;96164.00;;;17.40
15680;BMP180;15488;48.114;11.532;2022-09-21T08:12:16;96162.00;;;17.40
15680;BMP180;15488;48.114;11.532;2022-09-21T08:14:46;96153.00;;;17.50
15680;BMP180;15488;48.114;11.532;2022-09-21T08:17:14;96150.00;;;17.50
15680;BMP180;15488;48.114;11.532;2022-09-21T08:19:43;96160.00;;;17.60
15680;BMP180;15488;48.114;11.532;2022-09-21T08:22:10;96159.00;;;17.60
15680;BMP180;15488;48.114;11.532;2022-09-21T08:24:39;96156.00;;;17.60
15680;BMP180;15488;48.114;11.532;2022-09-21T08:27:09;96158.00;;;17.70
15680;BMP180;15488;48.114;11.532;2022-09-21T08:29:37;96165.00;;;17.80
15680;BMP180;15488;48.114;11.532;2022-09-21T08:32:04;96160.00;;;17.80
15680;BMP180;15488;48.114;11.532;2022-09-21T08:34:32;96160.00;;;17.90
15680;BMP180;15488;48.114;11.532;2022-09-21T08:37:01;96153.00;;;18.00
15680;BMP180;15488;48.114;11.532;2022-09-21T08:39:28;96159.00;;;18.00
15680;BMP180;15488;48.114;11.532;2022-09-21T08:42:15;96164.00;;;18.00
15680;BMP180;15488;48.114;11.532;2022-09-21T08:44:48;96162.00;;;18.10
15680;BMP180;15488;48.114;11.532;2022-09-21T08:47:20;96157.00;;;18.10
15680;BMP180;15488;48.114;11.532;2022-09-21T08:49:52;96162.00;;;18.20
15680;BMP180;15488;48.114;11.532;2022-09-21T08:52:23;96164.00;;;18.20
15680;BMP180;15488;48.114;11.532;2022-09-21T08:54:55;96163.00;;;18.30
15680;BMP180;15488;48.114;11.532;2022-09-21T08:57:28;96165.00;;;18.30
15680;BMP180;15488;48.114;11.532;2022-09-21T08:59:55;96168.00;;;18.40
15680;BMP180;15488;48.114;11.532;2022-09-21T09:02:37;96164.00;;;18.40
15680;BMP180;15488;48.114;11.532;2022-09-21T09:05:20;96163.00;;;18.40
15680;BMP180;15488;48.114;11.532;2022-09-21T09:11:08;96158.00;;;18.60
15680;BMP180;15488;48.114;11.532;2022-09-21T09:13:55;96157.00;;;18.60
15680;BMP180;15488;48.114;11.532;2022-09-21T09:16:28;96153.00;;;18.70
15680;BMP180;15488;48.114;11.532;2022-09-21T09:19:04;96151.00;;;18.70
15680;BMP180;15488;48.114;11.532;2022-09-21T09:21:36;96158.00;;;18.80
15680;BMP180;15488;48.114;11.532;2022-09-21T09:24:08;96148.00;;;18.90
15680;BMP180;15488;48.114;11.532;2022-09-21T09:26:43;96157.00;;;18.90
15680;BMP180;15488;48.114;11.532;2022-09-21T09:29:16;96154.00;;;19.00
15680;BMP180;15488;48.114;11.532;2022-09-21T09:31:45;96151.00;;;19.10
15680;BMP180;15488;48.114;11.532;2022-09-21T09:34:14;96154.00;;;19.20
15680;BMP180;15488;48.114;11.532;2022-09-21T09:36:49;96154.00;;;19.20
15680;BMP180;15488;48.114;11.532;2022-09-21T09:39:17;96147.00;;;19.30
15680;BMP180;15488;48.114;11.532;2022-09-21T09:42:06;96159.00;;;19.40
15680;BMP180;15488;48.114;11.532;2022-09-21T09:47:46;96145.00;;;19.50
15680;BMP180;15488;48.114;11.532;2022-09-21T09:50:22;96143.00;;;19.60
15680;BMP180;15488;48.114;11.532;2022-09-21T09:52:54;96139.00;;;19.70
15680;BMP180;15488;48.114;11.532;2022-09-21T09:55:27;96134.00;;;19.80
15680;BMP180;15488;48.114;11.532;2022-09-21T09:58:02;96136.00;;;19.80
15680;BMP180;15488;48.114;11.532;2022-09-21T10:00:30;96128.00;;;19.90
15680;BMP180;15488;48.114;11.532;2022-09-21T10:02:58;96132.00;;;20.00
15680;BMP180;15488;48.114;11.532;2022-09-21T10:05:32;96131.00;;;20.10
15680;BMP180;15488;48.114;11.532;2022-09-21T10:10:52;96128.00;;;20.20
15680;BMP180;15488;48.114;11.532;2022-09-21T10:13:27;96124.00;;;20.20
15680;BMP180;15488;48.114;11.532;2022-09-21T10:15:57;96125.00;;;20.30
15680;BMP180;15488;48.114;11.532;2022-09-21T10:18:28;96120.00;;;20.30
15680;BMP180;15488;48.114;11.532;2022-09-21T10:21:02;96112.00;;;20.30
15680;BMP180;15488;48.114;11.532;2022-09-21T10:23:32;96117.00;;;20.40
15680;BMP180;15488;48.114;11.532;2022-09-21T10:26:06;96102.00;;;20.40
15680;BMP180;15488;48.114;11.532;2022-09-21T10:28:36;96108.00;;;20.50
15680;BMP180;15488;48.114;11.532;2022-09-21T10:31:10;96103.00;;;20.50
15680;BMP180;15488;48.114;11.532;2022-09-21T10:33:50;96102.00;;;20.60
15680;BMP180;15488;48.114;11.532;2022-09-21T10:36:33;96107.00;;;20.60
15680;BMP180;15488;48.114;11.532;2022-09-21T10:39:26;96098.00;;;20.70
15680;BMP180;15488;48.114;11.532;2022-09-21T10:42:02;96108.00;;;20.70
15680;BMP180;15488;48.114;11.532;2022-09-21T10:44:40;96094.00;;;20.70
15680;BMP180;15488;48.114;11.532;2022-09-21T10:47:20;96095.00;;;20.80
15680;BMP180;15488;48.114;11.532;2022-09-21T10:49:53;96105.00;;;20.80
15680;BMP180;15488;48.114;11.532;2022-09-21T10:52:34;96099.00;;;20.90
15680;BMP180;15488;48.114;11.532;2022-09-21T10:55:02;96102.00;;;21.00
15680;BMP180;15488;48.114;11.532;2022-09-21T10:57:33;96092.00;;;21.10
15680;BMP180;15488;48.114;11.532;2022-09-21T11:00:27;96095.00;;;21.30
15680;BMP180;15488;48.114;11.532;2022-09-21T11:03:02;96090.00;;;21.40
15680;BMP180;15488;48.114;11.532;2022-09-21T11:05:33;96083.00;;;21.50
15680;BMP180;15488;48.114;11.532;2022-09-21T11:08:08;96092.00;;;21.60
15680;BMP180;15488;48.114;11.532;2022-09-21T11:10:42;96086.00;;;21.70
15680;BMP180;15488;48.114;11.532;2022-09-21T11:13:22;96079.00;;;21.80
15680;BMP180;15488;48.114;11.532;2022-09-21T11:15:56;96085.00;;;21.90
15680;BMP180;15488;48.114;11.532;2022-09-21T11:18:35;96085.00;;;22.00
15680;BMP180;15488;48.114;11.532;2022-09-21T11:21:13;96080.00;;;22.00
15680;BMP180;15488;48.114;11.532;2022-09-21T11:23:48;96088.00;;;22.10
15680;BMP180;15488;48.114;11.532;2022-09-21T11:26:24;96085.00;;;22.20
15680;BMP180;15488;48.114;11.532;2022-09-21T11:28:58;96078.00;;;22.30
15680;BMP180;15488;48.114;11.532;2022-09-21T11:31:50;96079.00;;;22.50
15680;BMP180;15488;48.114;11.532;2022-09-21T11:34:37;96070.00;;;22.60
15680;BMP180;15488;48.114;11.532;2022-09-21T11:37:14;96070.00;;;22.70
15680;BMP180;15488;48.114;11.532;2022-09-21T11:39:55;96075.00;;;22.70
15680;BMP180;15488;48.114;11.532;2022-09-21T11:42:36;96071.00;;;22.90
15680;BMP180;15488;48.114;11.532;2022-09-21T11:45:16;96072.00;;;23.00
15680;BMP180;15488;48.114;11.532;2022-09-21T11:48:01;96066.00;;;23.10
15680;BMP180;15488;48.114;11.532;2022-09-21T11:50:42;96068.00;;;23.30
15680;BMP180;15488;48.114;11.532;2022-09-21T11:53:47;96065.00;;;23.40
15680;BMP180;15488;48.114;11.532;2022-09-21T11:56:35;96053.00;;;23.50
15680;BMP180;15488;48.114;11.532;2022-09-21T11:59:25;96059.00;;;23.60
15680;BMP180;15488;48.114;11.532;2022-09-21T12:02:10;96051.00;;;23.60
15680;BMP180;15488;48.114;11.532;2022-09-21T12:04:48;96049.00;;;23.70
15680;BMP180;15488;48.114;11.532;2022-09-21T12:07:30;96049.00;;;23.80
15680;BMP180;15488;48.114;11.532;2022-09-21T12:13:11;96044.00;;;23.90
15680;BMP180;15488;48.114;11.532;2022-09-21T12:15:44;96038.00;;;24.00
15680;BMP180;15488;48.114;11.532;2022-09-21T12:18:19;96040.00;;;24.10
15680;BMP180;15488;48.114;11.532;2022-09-21T12:20:55;96042.00;;;24.10
15680;BMP180;15488;48.114;11.532;2022-09-21T12:23:30;96041.00;;;24.10
15680;BMP180;15488;48.114;11.532;2022-09-21T12:26:02;96040.00;;;24.10
15680;BMP180;15488;48.114;11.532;2022-09-21T12:28:33;96037.00;;;24.20
15680;BMP180;15488;48.114;11.532;2022-09-21T12:31:04;96034.00;;;24.20
15680;BMP180;15488;48.114;11.532;2022-09-21T12:33:38;96041.00;;;24.30
15680;BMP180;15488;48.114;11.532;2022-09-21T12:36:12;96038.00;;;24.50
15680;BMP180;15488;48.114;11.532;2022-09-21T12:38:45;96028.00;;;24.60
15680;BMP180;15488;48.114;11.532;2022-09-21T12:41:20;96035.00;;;24.60
15680;BMP180;15488;48.114;11.532;2022-09-21T12:43:52;96026.00;;;24.70
15680;BMP180;15488;48.114;11.532;2022-09-21T12:46:27;96028.00;;;24.70
15680;BMP180;15488;48.114;11.532;2022-09-21T12:48:56;96028.00;;;24.80
15680;BMP180;15488;48.114;11.532;2022-09-21T12:51:29;96029.00;;;24.90
15680;BMP180;15488;48.114;11.532;2022-09-21T12:54:04;96021.00;;;25.00
15680;BMP180;15488;48.114;11.532;2022-09-21T12:56:36;96029.00;;;25.10
15680;BMP180;15488;48.114;11.532;2022-09-21T12:59:17;96020.00;;;25.20
15680;BMP180;15488;48.114;11.532;2022-09-21T13:01:50;96026.00;;;25.30
15680;BMP180;15488;48.114;11.532;2022-09-21T13:04:43;96029.00;;;25.50
15680;BMP180;15488;48.114;11.532;2022-09-21T13:07:41;96022.00;;;25.50
15680;BMP180;15488;48.114;11.532;2022-09-21T13:10:16;96025.00;;;25.70
15680;BMP180;15488;48.114;11.532;2022-09-21T13:12:46;96027.00;;;25.70
15680;BMP180;15488;48.114;11.532;2022-09-21T13:15:22;96024.00;;;25.80
15680;BMP180;15488;48.114;11.532;2022-09-21T13:18:00;96020.00;;;26.00
15680;BMP180;15488;48.114;11.532;2022-09-21T13:20:34;96019.00;;;26.10
15680;BMP180;15488;48.114;11.532;2022-09-21T13:23:04;96015.00;;;26.30
15680;BMP180;15488;48.114;11.532;2022-09-21T13:25:33;96018.00;;;26.50
15680;BMP180;15488;48.114;11.532;2022-09-21T13:28:05;96020.00;;;26.60
15680;BMP180;15488;48.114;11.532;2022-09-21T13:30:37;96009.00;;;26.90
15680;BMP180;15488;48.114;11.532;2022-09-21T13:33:30;96015.00;;;27.10
15680;BMP180;15488;48.114;11.532;2022-09-21T13:39:14;95998.00;;;27.60
15680;BMP180;15488;48.114;11.532;2022-09-21T13:41:42;95999.00;;;27.80
15680;BMP180;15488;48.114;11.532;2022-09-21T13:44:35;95995.00;;;28.00
15680;BMP180;15488;48.114;11.532;2022-09-21T13:47:03;95995.00;;;28.20
15680;BMP180;15488;48.114;11.532;2022-09-21T13:49:46;96001.00;;;28.40
15680;BMP180;15488;48.114;11.532;2022-09-21T13:52:27;96002.00;;;28.60
15680;BMP180;15488;48.114;11.532;2022-09-21T13:54:57;96003.00;;;28.90
15680;BMP180;15488;48.114;11.532;2022-09-21T13:57:29;95991.00;;;29.40
15680;BMP180;15488;48.114;11.532;2022-09-21T14:00:32;95989.00;;;30.10
15680;BMP180;15488;48.114;11.532;2022-09-21T14:03:03;95995.00;;;31.10
15680;BMP180;15488;48.114;11.532;2022-09-21T14:05:36;95984.00;;;32.20
15680;BMP180;15488;48.114;11.532;2022-09-21T14:08:16;95992.00;;;33.60
15680;BMP180;15488;48.114;11.532;2022-09-21T14:10:50;95994.00;;;35.20
15680;BMP180;15488;48.114;11.532;2022-09-21T14:13:30;95986.00;;;36.80
15680;BMP180;15488;48.114;11.532;2022-09-21T14:19:56;95993.00;;;39.60
15680;BMP180;15488;48.114;11.532;2022-09-21T14:25:29;95994.00;;;42.00
15680;BMP180;15488;48.114;11.532;2022-09-21T14:28:11;95992.00;;;42.90
15680;BMP180;15488;48.114;11.532;2022-09-21T14:30:39;95995.00;;;43.60
15680;BMP180;15488;48.114;11.532;2022-09-21T14:33:26;95993.00;;;44.20
15680;BMP180;15488;48.114;11.532;2022-09-21T14:35:55;95993.00;;;44.70
15680;BMP180;15488;48.114;11.532;2022-09-21T14:38:24;95992.00;;;45.10
15680;BMP180;15488;48.114;11.532;2022-09-21T14:40:56;95991.00;;;45.40
15680;BMP180;15488;48.114;11.532;2022-09-21T14:43:29;96000.00;;;45.60
15680;BMP180;15488;48.114;11.532;2022-09-21T14:46:33;96003.00;;;45.70
15680;BMP180;15488;48.114;11.532;2022-09-21T14:49:13;95999.00;;;45.00
15680;BMP180;15488;48.114;11.532;2022-09-21T14:51:51;95999.00;;;44.30
15680;BMP180;15488;48.114;11.532;2022-09-21T14:54:32;96005.00;;;43.50